Time;durP1;ratioP1;P1;durP2;ratioP2;P2;SDS_P1;SDS_P2;PMS_P1;PMS_P2;Temp;Humidity;BMP_temperature;BMP_pressure;BME280_temperature;BME280_humidity;BME280_pressure;Samples;Min_cycle;Max_cycle;Signal;HPM_P1;HPM_P2
2024/01/06 00:01:50;;;;;;;6.53;4.63;;;1.50;99.90;;;;;;5075881;28;20107;-65
2024/01/06 00:04:16;;;;;;;5.68;5.07;;;1.40;99.90;;;;;;5076456;28;20127;-65
2024/01/06 00:06:42;;;;;;;4.03;3.72;;;1.50;99.90;;;;;;5076689;28;20570;-65
2024/01/06 00:09:07;;;;;;;5.03;4.50;;;1.50;99.90;;;;;;5075131;28;20235;-64
2024/01/06 00:11:33;;;;;;;5.63;4.95;;;1.40;99.90;;;;;;5073921;28;20043;-64
2024/01/06 00:13:59;;;;;;;6.60;5.30;;;1.40;99.90;;;;;;5057761;28;20059;-65
2024/01/06 00:16:24;;;;;;;5.70;5.07;;;1.40;99.90;;;;;;5078409;28;20089;-64
2024/01/06 00:18:50;;;;;;;4.65;4.25;;;1.40;99.90;;;;;;5075577;28;20041;-65
2024/01/06 00:21:16;;;;;;;4.70;4.30;;;1.30;99.90;;;;;;5066539;28;20092;-64
2024/01/06 00:23:42;;;;;;;4.72;4.13;;;1.30;99.90;;;;;;5077305;28;20512;-64
2024/01/06 00:26:10;;;;;;;6.07;4.57;;;1.30;99.90;;;;;;5084663;28;20046;-64
2024/01/06 00:28:37;;;;;;;5.50;5.00;;;1.40;99.90;;;;;;5074720;28;20040;-66
2024/01/06 00:31:04;;;;;;;6.15;4.90;;;1.30;99.90;;;;;;5079457;28;20044;-64
2024/01/06 00:33:30;;;;;;;5.72;4.40;;;1.30;99.90;;;;;;5060536;28;20398;-64
2024/01/06 00:35:55;;;;;;;5.57;4.85;;;1.30;99.90;;;;;;5079997;28;20043;-64
2024/01/06 00:38:23;;;;;;;6.30;4.43;;;1.40;99.90;;;;;;5061280;28;20523;-65
2024/01/06 00:40:48;;;;;;;5.43;4.93;;;1.40;99.90;;;;;;5076603;28;20040;-64
2024/01/06 00:43:14;;;;;;;9.38;4.43;;;1.40;99.90;;;;;;5081875;28;20409;-64
2024/01/06 00:45:40;;;;;;;5.57;5.07;;;1.40;99.90;;;;;;5082743;28;20140;-64
2024/01/06 00:48:06;;;;;;;5.55;4.80;;;1.40;99.90;;;;;;5066523;28;20486;-64
2024/01/06 00:50:31;;;;;;;6.85;5.45;;;1.30;99.90;;;;;;5073633;28;20047;-64
2024/01/06 00:52:57;;;;;;;6.70;5.68;;;1.30;99.90;;;;;;5062984;28;20048;-64
2024/01/06 00:55:24;;;;;;;6.97;3.95;;;1.40;99.90;;;;;;5063568;28;20044;-64
2024/01/06 00:57:50;;;;;;;5.93;5.13;;;1.30;99.90;;;;;;5081830;28;20135;-64
2024/01/06 01:00:16;;;;;;;6.80;5.22;;;1.30;99.90;;;;;;5079095;28;20048;-64
2024/01/06 01:02:41;;;;;;;7.95;4.75;;;1.40;99.90;;;;;;5061316;28;20454;-64
2024/01/06 01:05:07;;;;;;;6.75;5.38;;;1.30;99.90;;;;;;5082276;28;20311;-64
2024/01/06 01:07:33;;;;;;;7.18;4.95;;;1.20;99.90;;;;;;5078096;28;20031;-64
2024/01/06 01:09:59;;;;;;;7.57;5.80;;;1.30;99.90;;;;;;5086180;28;20074;-64
2024/01/06 01:12:25;;;;;;;6.10;4.93;;;1.30;99.90;;;;;;5080278;28;20075;-65
2024/01/06 01:14:51;;;;;;;9.05;5.05;;;1.20;99.90;;;;;;5080406;28;20047;-64
2024/01/06 01:17:17;;;;;;;6.38;4.95;;;1.20;99.90;;;;;;5082558;28;20084;-64
2024/01/06 01:19:43;;;;;;;10.77;5.97;;;1.20;99.90;;;;;;5087492;28;20043;-64
2024/01/06 01:22:09;;;;;;;9.13;6.25;;;1.20;99.90;;;;;;5081797;28;20036;-64
2024/01/06 01:24:34;;;;;;;7.10;5.40;;;1.20;99.90;;;;;;5078435;28;20075;-64
2024/01/06 01:27:00;;;;;;;12.30;5.10;;;1.20;99.90;;;;;;5080724;28;20055;-64
2024/01/06 01:29:26;;;;;;;8.07;5.68;;;1.20;99.90;;;;;;5080658;28;20040;-64
2024/01/06 01:31:51;;;;;;;4.53;3.65;;;1.10;99.90;;;;;;5079715;28;20044;-64
2024/01/06 01:34:17;;;;;;;7.13;5.63;;;1.10;99.90;;;;;;5074344;28;20097;-64
2024/01/06 01:36:43;;;;;;;10.85;6.55;;;1.10;99.90;;;;;;5084173;28;20114;-64
2024/01/06 01:39:09;;;;;;;3.95;3.65;;;1.10;99.90;;;;;;5082578;28;20047;-64
2024/01/06 01:41:35;;;;;;;9.63;6.18;;;1.00;99.90;;;;;;5056925;28;20036;-64
2024/01/06 01:44:01;;;;;;;7.13;5.25;;;1.10;99.90;;;;;;5081941;28;20122;-64
2024/01/06 01:46:29;;;;;;;8.45;5.78;;;1.10;99.90;;;;;;5064361;28;20055;-64
2024/01/06 01:48:59;;;;;;;7.75;4.15;;;1.10;99.90;;;;;;5081518;28;20046;-64
2024/01/06 01:51:28;;;;;;;6.05;4.60;;;1.10;99.90;;;;;;5081218;28;20036;-64
2024/01/06 01:53:55;;;;;;;6.53;4.70;;;1.00;99.90;;;;;;5079754;28;20127;-65
2024/01/06 01:56:21;;;;;;;8.25;5.72;;;1.10;99.90;;;;;;5078810;28;20158;-65
2024/01/06 01:58:47;;;;;;;7.78;5.65;;;1.00;99.90;;;;;;5049553;28;20067;-65
2024/01/06 02:01:14;;;;;;;6.85;4.88;;;1.00;99.90;;;;;;5059128;28;20065;-64
2024/01/06 02:03:43;;;;;;;7.50;4.78;;;1.00;99.90;;;;;;5059408;28;20056;-64
2024/01/06 02:06:09;;;;;;;10.90;5.57;;;1.00;99.90;;;;;;5058051;28;20467;-64
2024/01/06 02:08:35;;;;;;;7.85;4.47;;;1.10;99.90;;;;;;5058441;28;20126;-64
2024/01/06 02:11:01;;;;;;;6.28;5.30;;;1.10;99.90;;;;;;5061633;28;20041;-65
2024/01/06 02:13:37;;;;;;;6.85;5.35;;;1.00;99.90;;;;;;5057874;28;20618;-65
2024/01/06 02:16:04;;;;;;;10.25;5.25;;;1.00;99.90;;;;;;5059462;28;20394;-64
2024/01/06 02:18:30;;;;;;;6.22;4.40;;;1.00;99.90;;;;;;5060254;28;20052;-64
2024/01/06 02:20:59;;;;;;;11.63;5.82;;;1.00;99.90;;;;;;5063360;28;20041;-64
2024/01/06 02:23:26;;;;;;;6.75;4.47;;;1.00;99.90;;;;;;5059574;28;20072;-64
2024/01/06 02:25:52;;;;;;;6.80;3.70;;;1.00;99.90;;;;;;5059409;28;20420;-64
2024/01/06 02:28:18;;;;;;;10.68;3.85;;;0.90;99.90;;;;;;5055564;28;20036;-65
2024/01/06 02:30:44;;;;;;;3.53;3.08;;;1.00;99.90;;;;;;5052446;28;20129;-64
2024/01/06 02:33:09;;;;;;;4.68;3.85;;;1.00;99.90;;;;;;5055284;28;20040;-64
2024/01/06 02:35:35;;;;;;;7.13;4.20;;;0.90;99.90;;;;;;5059466;28;20044;-64
2024/01/06 02:38:01;;;;;;;11.52;5.13;;;1.00;99.90;;;;;;5056221;28;20053;-64
2024/01/06 02:40:27;;;;;;;4.32;3.92;;;1.00;99.90;;;;;;5060431;28;20045;-64
2024/01/06 02:42:53;;;;;;;6.32;4.45;;;0.90;99.90;;;;;;5053915;28;20106;-65
2024/01/06 02:45:18;;;;;;;10.45;4.60;;;1.00;99.90;;;;;;5059717;28;20565;-65
2024/01/06 02:47:44;;;;;;;5.25;3.97;;;0.90;99.90;;;;;;5058949;28;20076;-64
2024/01/06 02:50:10;;;;;;;6.45;4.78;;;0.90;99.90;;;;;;5061095;28;20105;-64
2024/01/06 02:52:36;;;;;;;5.80;4.00;;;0.90;99.90;;;;;;5054871;28;20076;-64
2024/01/06 02:55:01;;;;;;;6.03;4.45;;;1.00;99.90;;;;;;5058796;28;20734;-65
2024/01/06 02:57:29;;;;;;;9.25;5.05;;;0.90;99.90;;;;;;5059347;28;20047;-64
2024/01/06 02:59:55;;;;;;;6.13;4.22;;;0.90;99.90;;;;;;5079217;28;20051;-64
2024/01/06 03:02:20;;;;;;;5.10;4.55;;;0.90;99.90;;;;;;5079724;28;20059;-64
2024/01/06 03:04:46;;;;;;;6.90;4.97;;;0.90;99.90;;;;;;5077900;28;20055;-64
2024/01/06 03:07:12;;;;;;;5.03;3.85;;;0.90;99.90;;;;;;5077549;28;20071;-64
2024/01/06 03:09:38;;;;;;;8.77;4.25;;;0.80;99.90;;;;;;5079653;28;20054;-64
2024/01/06 03:12:08;;;;;;;8.23;4.78;;;0.80;99.90;;;;;;5082224;28;20573;-65
2024/01/06 03:14:37;;;;;;;3.07;2.63;;;0.80;99.90;;;;;;5076852;28;20040;-64
2024/01/06 03:17:03;;;;;;;7.07;3.72;;;0.80;99.90;;;;;;5072652;28;20460;-64
2024/01/06 03:19:32;;;;;;;5.72;4.47;;;0.80;99.90;;;;;;5077802;28;20035;-64
2024/01/06 03:21:58;;;;;;;4.28;3.88;;;0.80;99.90;;;;;;5060155;28;20056;-64
2024/01/06 03:24:25;;;;;;;8.98;4.85;;;0.80;99.90;;;;;;5062913;28;20527;-64
2024/01/06 03:26:51;;;;;;;5.88;4.53;;;0.90;99.90;;;;;;5076792;28;20047;-64
2024/01/06 03:29:17;;;;;;;6.97;3.65;;;0.80;99.90;;;;;;5075965;28;20044;-65
2024/01/06 03:31:44;;;;;;;4.57;3.42;;;0.90;99.90;;;;;;5078602;28;20055;-64
2024/01/06 03:34:11;;;;;;;6.95;4.22;;;0.80;99.90;;;;;;5073472;28;20047;-64
2024/01/06 03:36:37;;;;;;;10.55;4.35;;;0.90;99.90;;;;;;5080785;28;21567;-65
2024/01/06 03:39:03;;;;;;;6.32;3.63;;;0.80;99.90;;;;;;5069048;28;20319;-65
2024/01/06 03:41:28;;;;;;;7.75;4.72;;;0.80;99.90;;;;;;5059669;28;20063;-64
2024/01/06 03:43:54;;;;;;;6.07;5.15;;;0.90;99.90;;;;;;5076243;28;20127;-64
2024/01/06 03:46:20;;;;;;;7.10;4.55;;;0.80;99.90;;;;;;5083037;28;20143;-64
2024/01/06 03:48:45;;;;;;;4.88;4.20;;;0.90;99.90;;;;;;5045570;28;20044;-64
2024/01/06 03:51:12;;;;;;;6.40;3.47;;;0.80;99.90;;;;;;5076569;28;20095;-65
2024/01/06 03:53:38;;;;;;;5.05;4.30;;;0.90;99.90;;;;;;5075827;28;20044;-64
2024/01/06 03:56:04;;;;;;;5.10;4.60;;;0.80;99.90;;;;;;5067601;28;20050;-64
2024/01/06 03:58:30;;;;;;;7.20;4.28;;;0.80;99.90;;;;;;5075476;28;20229;-64
2024/01/06 04:00:56;;;;;;;5.45;4.18;;;0.90;99.90;;;;;;5053023;28;20059;-64
2024/01/06 04:03:21;;;;;;;7.43;4.55;;;0.90;99.90;;;;;;5077579;28;20087;-65
2024/01/06 04:05:47;;;;;;;7.97;4.85;;;0.90;99.90;;;;;;5078924;28;20118;-65
2024/01/06 04:08:13;;;;;;;5.00;4.45;;;0.80;99.90;;;;;;5061323;28;20040;-65
2024/01/06 04:10:41;;;;;;;10.38;4.45;;;0.90;99.90;;;;;;5060406;28;20051;-64
2024/01/06 04:13:12;;;;;;;6.32;4.65;;;0.90;99.90;;;;;;5077571;28;20045;-64
2024/01/06 04:15:38;;;;;;;5.93;4.38;;;0.90;99.90;;;;;;5075120;28;20054;-64
2024/01/06 04:18:05;;;;;;;6.13;4.55;;;0.90;99.90;;;;;;5077533;28;20393;-64
2024/01/06 04:20:32;;;;;;;7.65;5.00;;;0.80;99.90;;;;;;5089582;28;20054;-64
2024/01/06 04:22:57;;;;;;;4.53;4.07;;;0.90;99.90;;;;;;5079031;28;20051;-64
2024/01/06 04:25:23;;;;;;;6.97;4.72;;;0.90;99.90;;;;;;5094813;28;20051;-64
2024/01/06 04:27:49;;;;;;;5.15;4.25;;;0.90;99.90;;;;;;5087208;28;20094;-64
2024/01/06 04:30:16;;;;;;;5.20;3.83;;;0.90;99.90;;;;;;5075410;28;20461;-65
2024/01/06 04:32:42;;;;;;;5.38;4.88;;;0.90;99.90;;;;;;5087592;28;20555;-64
2024/01/06 04:35:08;;;;;;;7.03;4.25;;;0.90;99.90;;;;;;5077547;28;20048;-64
2024/01/06 04:37:34;;;;;;;9.45;3.88;;;0.90;99.90;;;;;;5085529;28;20108;-65
2024/01/06 04:40:00;;;;;;;10.75;4.70;;;1.00;99.90;;;;;;5064844;28;20044;-64
2024/01/06 04:42:26;;;;;;;7.90;4.65;;;1.00;99.90;;;;;;5072441;28;20064;-64
2024/01/06 04:44:51;;;;;;;5.70;3.83;;;1.00;99.90;;;;;;5091432;28;20086;-64
2024/01/06 04:47:17;;;;;;;7.10;4.93;;;0.90;99.90;;;;;;5086845;28;20104;-65
2024/01/06 04:49:44;;;;;;;6.82;4.80;;;0.90;99.90;;;;;;5083222;28;20048;-64
2024/01/06 04:52:10;;;;;;;7.38;4.88;;;0.90;99.90;;;;;;5101509;28;20104;-64
2024/01/06 04:54:35;;;;;;;5.60;4.10;;;1.00;99.90;;;;;;5101487;28;20028;-64
2024/01/06 04:57:01;;;;;;;7.70;4.80;;;0.90;99.90;;;;;;5081444;28;20044;-64
2024/01/06 04:59:27;;;;;;;5.25;4.07;;;0.90;99.90;;;;;;5080531;28;20453;-65
2024/01/06 05:01:54;;;;;;;5.95;4.45;;;0.90;99.90;;;;;;5092175;28;20088;-64
2024/01/06 05:04:20;;;;;;;5.32;4.32;;;1.00;99.90;;;;;;5090797;28;20480;-65
2024/01/06 05:06:45;;;;;;;5.18;3.83;;;1.00;99.90;;;;;;5086659;28;20149;-64
2024/01/06 05:09:11;;;;;;;10.32;4.93;;;1.00;99.90;;;;;;5100465;28;20109;-64
2024/01/06 05:11:37;;;;;;;7.60;4.63;;;1.10;99.90;;;;;;5087217;28;20039;-64
2024/01/06 05:14:03;;;;;;;5.38;4.47;;;1.00;99.90;;;;;;5054967;28;20079;-65
2024/01/06 05:16:30;;;;;;;5.18;3.05;;;1.00;99.90;;;;;;5086405;28;20482;-64
2024/01/06 05:18:55;;;;;;;6.45;4.22;;;1.00;99.90;;;;;;5070465;28;20618;-64
2024/01/06 05:21:21;;;;;;;7.78;4.68;;;1.00;99.90;;;;;;5047275;28;20090;-64
2024/01/06 05:23:47;;;;;;;10.18;4.95;;;1.00;99.90;;;;;;5102867;28;20040;-64
2024/01/06 05:26:13;;;;;;;6.55;4.97;;;1.00;99.90;;;;;;5092860;28;20036;-64
2024/01/06 05:28:40;;;;;;;8.13;4.07;;;1.10;99.90;;;;;;5067961;28;20048;-64
2024/01/06 05:31:06;;;;;;;3.92;3.47;;;1.10;99.90;;;;;;5069621;28;20334;-64
2024/01/06 05:33:31;;;;;;;8.20;4.68;;;1.10;99.90;;;;;;5082014;28;20074;-64
2024/01/06 05:35:57;;;;;;;6.90;4.43;;;1.10;99.90;;;;;;5082725;28;20133;-65
2024/01/06 05:38:23;;;;;;;6.72;4.72;;;1.20;99.90;;;;;;5096941;28;20059;-64
2024/01/06 05:40:48;;;;;;;8.90;4.72;;;1.10;99.90;;;;;;5081401;28;20490;-64
2024/01/06 05:43:14;;;;;;;5.20;3.83;;;1.00;99.90;;;;;;5088904;28;20096;-65
2024/01/06 05:45:41;;;;;;;8.32;5.50;;;1.10;99.90;;;;;;5083793;28;20079;-65
2024/01/06 05:48:10;;;;;;;7.97;4.75;;;1.10;99.90;;;;;;5094545;28;20502;-64
2024/01/06 05:50:39;;;;;;;5.80;4.25;;;1.10;99.90;;;;;;5067291;28;20055;-64
2024/01/06 05:53:04;;;;;;;7.75;5.95;;;1.10;99.90;;;;;;5083685;28;20528;-64
2024/01/06 05:55:30;;;;;;;7.32;5.28;;;1.10;99.90;;;;;;5104508;28;20083;-64
2024/01/06 05:57:56;;;;;;;7.47;4.80;;;1.10;99.90;;;;;;5090157;28;20632;-64
2024/01/06 06:00:22;;;;;;;8.15;5.20;;;1.10;99.90;;;;;;5082031;28;20047;-64
2024/01/06 06:02:48;;;;;;;8.52;5.38;;;1.10;99.90;;;;;;5090700;28;20102;-64
2024/01/06 06:05:13;;;;;;;7.95;5.68;;;1.10;99.90;;;;;;5094991;28;20071;-64
2024/01/06 06:07:39;;;;;;;6.13;5.50;;;1.20;99.90;;;;;;5077709;28;20044;-64
2024/01/06 06:10:09;;;;;;;7.50;5.28;;;1.20;99.90;;;;;;5079746;28;20135;-64
2024/01/06 06:12:36;;;;;;;7.10;5.75;;;1.20;99.90;;;;;;5087751;28;20040;-64
2024/01/06 06:15:03;;;;;;;7.47;4.78;;;1.20;99.90;;;;;;5068852;28;20047;-64
2024/01/06 06:17:30;;;;;;;8.50;5.15;;;1.20;99.90;;;;;;5100010;28;20051;-64
2024/01/06 06:19:57;;;;;;;6.13;4.60;;;1.20;99.90;;;;;;5097303;28;20052;-64
2024/01/06 06:22:23;;;;;;;5.95;5.00;;;1.30;99.90;;;;;;5079083;28;20043;-64
2024/01/06 06:24:49;;;;;;;6.03;5.05;;;1.20;99.90;;;;;;5100902;28;20039;-64
2024/01/06 06:27:14;;;;;;;5.80;5.20;;;1.20;99.90;;;;;;5083735;28;20900;-64
2024/01/06 06:29:40;;;;;;;8.48;5.57;;;1.30;99.90;;;;;;5099604;28;20086;-65
2024/01/06 06:32:06;;;;;;;6.80;5.38;;;1.30;99.90;;;;;;5066682;28;20505;-64
2024/01/06 06:34:31;;;;;;;6.55;4.88;;;1.20;99.90;;;;;;5066394;28;20048;-64
2024/01/06 06:36:58;;;;;;;8.38;5.45;;;1.20;99.90;;;;;;5070207;28;20659;-64
2024/01/06 06:39:24;;;;;;;6.50;5.18;;;1.20;99.90;;;;;;5090790;28;20492;-64
2024/01/06 06:41:50;;;;;;;6.38;5.10;;;1.30;99.90;;;;;;5086850;28;20516;-64
2024/01/06 06:44:15;;;;;;;7.20;5.15;;;1.30;99.90;;;;;;5084331;28;20405;-64
2024/01/06 06:46:41;;;;;;;7.78;5.28;;;1.30;99.90;;;;;;5076601;28;20301;-64
2024/01/06 06:49:07;;;;;;;7.82;5.63;;;1.30;99.90;;;;;;5092450;28;20114;-64
2024/01/06 06:51:33;;;;;;;6.50;4.93;;;1.30;99.90;;;;;;5065328;28;20541;-64
2024/01/06 06:53:59;;;;;;;11.93;5.60;;;1.30;99.90;;;;;;5102666;28;20036;-64
2024/01/06 06:56:24;;;;;;;8.23;5.43;;;1.30;99.90;;;;;;5068710;28;20490;-64
2024/01/06 06:58:50;;;;;;;7.85;5.15;;;1.30;99.90;;;;;;5066054;28;20081;-65
2024/01/06 07:01:16;;;;;;;8.65;5.75;;;1.30;99.90;;;;;;5058591;28;20502;-64
2024/01/06 07:03:42;;;;;;;7.15;5.38;;;1.30;99.90;;;;;;5098996;28;20039;-64
2024/01/06 07:06:08;;;;;;;8.77;5.78;;;1.30;99.90;;;;;;5076451;28;20044;-65
2024/01/06 07:08:34;;;;;;;6.55;4.50;;;1.30;99.90;;;;;;5089170;28;20114;-64
2024/01/06 07:11:00;;;;;;;6.47;5.20;;;1.30;99.90;;;;;;5070668;28;20055;-64
2024/01/06 07:13:26;;;;;;;7.00;5.47;;;1.30;99.90;;;;;;5093770;28;20043;-64
2024/01/06 07:15:52;;;;;;;7.30;4.80;;;1.30;99.90;;;;;;5073883;28;20485;-64
2024/01/06 07:18:22;;;;;;;6.15;5.55;;;1.30;99.90;;;;;;5085776;28;20125;-64
2024/01/06 07:20:48;;;;;;;7.03;5.18;;;1.30;99.90;;;;;;5087219;28;20051;-64
2024/01/06 07:23:14;;;;;;;6.22;5.30;;;1.40;99.90;;;;;;5080558;28;20509;-64
2024/01/06 07:25:40;;;;;;;7.93;4.75;;;1.30;99.90;;;;;;5086833;28;20036;-65
2024/01/06 07:28:07;;;;;;;6.78;5.25;;;1.30;99.90;;;;;;5089366;28;20489;-64
2024/01/06 07:30:33;;;;;;;7.10;5.40;;;1.40;99.90;;;;;;5076229;28;20410;-65
2024/01/06 07:32:58;;;;;;;7.68;5.40;;;1.40;99.90;;;;;;5063289;28;20058;-64
2024/01/06 07:35:24;;;;;;;9.65;6.20;;;1.40;99.90;;;;;;5088672;28;20556;-64
2024/01/06 07:37:50;;;;;;;11.90;6.28;;;1.40;99.90;;;;;;5065785;28;20094;-64
2024/01/06 07:40:16;;;;;;;7.15;5.50;;;1.40;99.90;;;;;;5095132;28;20032;-65
2024/01/06 07:42:43;;;;;;;8.90;6.18;;;1.40;99.90;;;;;;5050540;28;20051;-64
2024/01/06 07:45:09;;;;;;;7.50;5.57;;;1.40;99.90;;;;;;5052163;28;20130;-64
2024/01/06 07:47:35;;;;;;;9.65;6.95;;;1.40;99.90;;;;;;5087584;28;20054;-64
2024/01/06 07:50:01;;;;;;;10.45;7.32;;;1.40;99.90;;;;;;5090031;28;20490;-64
2024/01/06 07:52:27;;;;;;;6.75;5.70;;;1.40;99.90;;;;;;5073992;28;20495;-64
2024/01/06 07:54:52;;;;;;;9.18;6.45;;;1.40;99.90;;;;;;5088700;28;20048;-64
2024/01/06 07:57:18;;;;;;;8.27;6.43;;;1.40;99.90;;;;;;5089504;28;20115;-64
2024/01/06 07:59:44;;;;;;;10.52;6.90;;;1.40;99.90;;;;;;5081162;28;20056;-64
2024/01/06 08:02:10;;;;;;;7.47;5.45;;;1.40;99.90;;;;;;5080905;28;20076;-64
2024/01/06 08:04:36;;;;;;;7.55;5.35;;;1.40;99.90;;;;;;5082319;28;20176;-64
2024/01/06 08:07:02;;;;;;;12.35;7.22;;;1.40;99.90;;;;;;5080035;28;20061;-64
2024/01/06 08:09:27;;;;;;;10.43;7.07;;;1.40;99.90;;;;;;5081677;28;20505;-64
2024/01/06 08:11:53;;;;;;;9.55;6.80;;;1.40;99.90;;;;;;5075934;28;20039;-64
2024/01/06 08:14:18;;;;;;;9.07;6.95;;;1.40;99.90;;;;;;5082430;28;20073;-64
2024/01/06 08:16:44;;;;;;;8.55;6.20;;;1.40;99.90;;;;;;5080398;28;20442;-64
2024/01/06 08:19:10;;;;;;;9.60;7.25;;;1.40;99.90;;;;;;5080493;28;20040;-64
2024/01/06 08:21:36;;;;;;;9.85;6.75;;;1.40;99.90;;;;;;5063881;28;20094;-64
2024/01/06 08:24:02;;;;;;;14.10;7.55;;;1.40;99.90;;;;;;5057857;28;20040;-65
2024/01/06 08:26:28;;;;;;;9.00;6.95;;;1.40;99.90;;;;;;5081385;28;20054;-64
2024/01/06 08:28:53;;;;;;;13.07;6.70;;;1.40;99.90;;;;;;5079122;28;20561;-65
2024/01/06 08:31:19;;;;;;;9.52;6.55;;;1.40;99.90;;;;;;5080909;28;20496;-64
2024/01/06 08:33:45;;;;;;;9.00;6.78;;;1.40;99.90;;;;;;5079559;28;20040;-64
2024/01/06 08:36:11;;;;;;;10.52;7.00;;;1.40;99.90;;;;;;5082032;28;20052;-64
2024/01/06 08:38:37;;;;;;;6.38;4.13;;;1.40;99.90;;;;;;5080769;28;20044;-64
2024/01/06 08:41:03;;;;;;;11.88;6.93;;;1.40;99.90;;;;;;5078279;28;20174;-64
2024/01/06 08:43:28;;;;;;;10.52;6.68;;;1.40;99.90;;;;;;5039782;28;20062;-64
2024/01/06 08:45:54;;;;;;;12.13;7.88;;;1.40;99.90;;;;;;5044390;28;20062;-64
2024/01/06 08:48:21;;;;;;;13.20;7.60;;;1.40;99.90;;;;;;5081851;28;20071;-64
2024/01/06 08:50:47;;;;;;;10.85;6.80;;;1.40;99.90;;;;;;5075375;28;20938;-64
2024/01/06 08:53:12;;;;;;;11.05;7.28;;;1.40;99.90;;;;;;5062200;28;20075;-64
2024/01/06 08:55:38;;;;;;;9.85;7.40;;;1.40;99.90;;;;;;5062432;28;20051;-64
2024/01/06 08:58:04;;;;;;;11.27;7.35;;;1.40;99.90;;;;;;5062816;28;20059;-64
2024/01/06 09:00:30;;;;;;;10.15;7.03;;;1.40;99.90;;;;;;5077430;28;20169;-64
2024/01/06 09:02:55;;;;;;;10.85;8.15;;;1.40;99.90;;;;;;5073187;28;20040;-64
2024/01/06 09:05:21;;;;;;;14.05;7.68;;;1.40;99.90;;;;;;5065619;28;20052;-64
2024/01/06 09:07:49;;;;;;;11.48;7.57;;;1.40;99.90;;;;;;5061849;28;20047;-64
2024/01/06 09:10:18;;;;;;;9.32;6.78;;;1.40;99.90;;;;;;5080768;28;20060;-64
2024/01/06 09:12:43;;;;;;;13.98;8.50;;;1.40;99.90;;;;;;5090509;28;20032;-64
2024/01/06 09:15:09;;;;;;;10.60;7.70;;;1.50;99.90;;;;;;5088174;28;20077;-64
2024/01/06 09:17:35;;;;;;;11.90;7.25;;;1.40;99.90;;;;;;5087090;28;20560;-64
2024/01/06 09:20:01;;;;;;;9.65;7.05;;;1.40;99.90;;;;;;5083999;28;20043;-64
2024/01/06 09:22:27;;;;;;;12.68;7.30;;;1.40;99.90;;;;;;5085357;28;20042;-64
2024/01/06 09:24:53;;;;;;;7.78;6.70;;;1.50;99.90;;;;;;5063128;28;20078;-64
2024/01/06 09:27:19;;;;;;;10.23;7.10;;;1.40;99.90;;;;;;5084739;28;20154;-64
2024/01/06 09:29:45;;;;;;;10.90;7.55;;;1.40;99.90;;;;;;5082328;28;20044;-64
2024/01/06 09:32:11;;;;;;;12.48;7.53;;;1.50;99.90;;;;;;5079206;28;20113;-64
2024/01/06 09:34:37;;;;;;;12.35;7.60;;;1.50;99.90;;;;;;5083257;28;20501;-64
2024/01/06 09:37:03;;;;;;;10.88;6.75;;;1.50;99.90;;;;;;5083771;28;20082;-64
2024/01/06 09:39:30;;;;;;;14.48;7.55;;;1.50;99.90;;;;;;5083680;28;20079;-64
2024/01/06 09:41:56;;;;;;;14.30;6.57;;;1.50;99.90;;;;;;5078322;28;20036;-64
2024/01/06 09:44:22;;;;;;;11.25;8.68;;;1.50;99.90;;;;;;5084895;28;20062;-64
2024/01/06 09:46:49;;;;;;;13.55;7.82;;;1.50;99.90;;;;;;5081846;28;20408;-64
2024/01/06 09:49:16;;;;;;;10.68;7.65;;;1.40;99.90;;;;;;5060611;28;20043;-64
2024/01/06 09:51:42;;;;;;;12.27;8.27;;;1.40;99.90;;;;;;5083329;28;20048;-64
2024/01/06 09:54:10;;;;;;;7.93;6.75;;;1.40;99.90;;;;;;5065713;28;20092;-64
2024/01/06 09:56:39;;;;;;;9.27;6.35;;;1.50;99.90;;;;;;5084802;28;20054;-64
2024/01/06 09:59:05;;;;;;;8.75;6.38;;;1.50;99.90;;;;;;5079218;28;20058;-64
2024/01/06 10:01:31;;;;;;;12.05;7.30;;;1.50;99.90;;;;;;5043493;28;20056;-64
2024/01/06 10:03:57;;;;;;;11.70;7.00;;;1.50;99.90;;;;;;5082203;28;20075;-64
2024/01/06 10:06:23;;;;;;;10.15;6.47;;;1.40;99.90;;;;;;5060817;28;21010;-64
2024/01/06 10:08:52;;;;;;;9.20;7.05;;;1.40;99.90;;;;;;5044472;28;20536;-64
2024/01/06 10:11:27;;;;;;;9.20;5.90;;;1.40;99.90;;;;;;5079289;28;20563;-64
2024/01/06 10:13:56;;;;;;;9.98;5.65;;;1.40;99.90;;;;;;5080784;28;20041;-64
2024/01/06 10:16:22;;;;;;;6.65;4.85;;;1.50;99.90;;;;;;5080497;28;20511;-64
2024/01/06 10:18:48;;;;;;;9.38;6.72;;;1.40;99.90;;;;;;5065485;28;20044;-63
2024/01/06 10:21:17;;;;;;;10.57;7.25;;;1.40;99.90;;;;;;5076432;28;20363;-64
2024/01/06 10:23:45;;;;;;;9.07;6.35;;;1.50;99.90;;;;;;5082403;28;20130;-64
2024/01/06 10:26:14;;;;;;;11.50;7.97;;;1.50;99.90;;;;;;5078517;28;20524;-64
2024/01/06 10:28:41;;;;;;;10.23;7.45;;;1.50;99.90;;;;;;5077025;28;20074;-64
2024/01/06 10:31:08;;;;;;;9.32;7.40;;;1.50;99.90;;;;;;5082152;28;20040;-64
2024/01/06 10:33:35;;;;;;;11.55;7.72;;;1.50;99.90;;;;;;5075413;28;20471;-64
2024/01/06 10:36:03;;;;;;;10.20;7.38;;;1.50;99.90;;;;;;5063770;28;20243;-64
2024/01/06 10:38:29;;;;;;;8.20;6.85;;;1.60;99.90;;;;;;5047216;28;20043;-64
2024/01/06 10:41:09;;;;;;;10.57;6.75;;;1.50;99.90;;;;;;5071496;28;20131;-64
2024/01/06 10:43:40;;;;;;;8.75;6.55;;;1.50;99.90;;;;;;5057809;28;20059;-64
2024/01/06 10:46:09;;;;;;;;;;;1.50;99.90;;;;;;5060639;28;20067;-64
2024/01/06 10:48:38;;;;;;;12.10;6.72;;;1.50;99.90;;;;;;5083273;28;19931;-65
2024/01/06 10:51:07;;;;;;;10.23;6.72;;;1.50;99.90;;;;;;5058281;28;20086;-64
2024/01/06 10:53:38;;;;;;;8.63;6.32;;;1.50;99.90;;;;;;5063932;28;20039;-64
2024/01/06 10:56:06;;;;;;;9.80;6.50;;;1.50;99.90;;;;;;5078716;28;20044;-64
2024/01/06 10:58:37;;;;;;;9.73;6.20;;;1.40;99.90;;;;;;5083309;28;20055;-65
2024/01/06 11:01:03;;;;;;;8.38;5.88;;;1.50;99.90;;;;;;5063702;28;20048;-64
2024/01/06 11:03:30;;;;;;;9.75;6.28;;;1.50;99.90;;;;;;5081087;28;20122;-64
2024/01/06 11:05:58;;;;;;;8.75;6.78;;;1.50;99.90;;;;;;5063056;28;20056;-64
2024/01/06 11:08:26;;;;;;;10.35;7.10;;;1.50;99.90;;;;;;5081084;28;20607;-64
2024/01/06 11:10:52;;;;;;;8.95;6.97;;;1.50;99.90;;;;;;5066713;28;20400;-64
2024/01/06 11:13:22;;;;;;;9.60;6.45;;;1.50;99.90;;;;;;5083989;28;20040;-64
2024/01/06 11:15:52;;;;;;;12.10;7.32;;;1.50;99.90;;;;;;5075636;28;20086;-64
2024/01/06 11:18:41;;;;;;;7.10;6.15;;;1.50;99.90;;;;;;5069568;28;20513;-64
2024/01/06 11:21:24;;;;;;;7.82;5.55;;;1.50;99.90;;;;;;5084458;28;20046;-64
2024/01/06 11:24:20;;;;;;;9.63;5.80;;;1.50;99.90;;;;;;5092526;28;20255;-64
2024/01/06 11:26:55;;;;;;;9.70;6.78;;;1.50;99.90;;;;;;5074910;28;20458;-64
2024/01/06 11:29:21;;;;;;;9.98;6.20;;;1.50;99.90;;;;;;5085694;28;20468;-64
2024/01/06 11:32:36;;;;;;;8.68;6.82;;;1.50;99.90;;;;;;5082510;28;20131;-64
2024/01/06 11:35:10;;;;;;;9.45;6.55;;;1.50;99.90;;;;;;5081853;28;20777;-63
2024/01/06 11:37:51;;;;;;;10.15;7.07;;;1.50;99.90;;;;;;5086996;28;20102;-63
2024/01/06 11:40:25;;;;;;;9.23;6.95;;;1.50;99.90;;;;;;5081128;28;20047;-63
2024/01/06 11:43:07;;;;;;;9.13;5.30;;;1.60;99.90;;;;;;5042069;28;20048;-63
2024/01/06 11:45:35;;;;;;;9.13;6.30;;;1.60;99.90;;;;;;5079552;28;20055;-64
2024/01/06 11:48:06;;;;;;;6.55;5.90;;;1.50;99.90;;;;;;5080909;28;20052;-63
2024/01/06 11:50:33;;;;;;;7.00;5.85;;;1.50;99.90;;;;;;5077506;28;20123;-63
2024/01/06 11:52:59;;;;;;;9.35;5.25;;;1.60;99.90;;;;;;5063263;28;20044;-63
2024/01/06 11:55:31;;;;;;;7.00;5.32;;;1.60;99.90;;;;;;5078810;28;20044;-63
2024/01/06 11:58:02;;;;;;;6.35;5.50;;;1.60;99.90;;;;;;5082164;28;20350;-63
2024/01/06 12:00:29;;;;;;;6.55;4.35;;;1.60;99.90;;;;;;5059780;28;20434;-63
2024/01/06 12:02:59;;;;;;;6.30;4.50;;;1.60;99.90;;;;;;5045762;28;20040;-63
2024/01/06 12:05:26;;;;;;;6.57;4.90;;;1.50;99.90;;;;;;5077846;28;20106;-64
2024/01/06 12:08:00;;;;;;;5.85;4.65;;;1.60;99.90;;;;;;5082614;28;20067;-64
2024/01/06 12:10:27;;;;;;;7.50;4.78;;;1.50;99.90;;;;;;5061158;28;20059;-64
2024/01/06 12:13:09;;;;;;;8.48;5.85;;;1.50;99.90;;;;;;5092664;28;20050;-64
2024/01/06 12:15:39;;;;;;;7.00;5.47;;;1.50;99.90;;;;;;5088256;28;20563;-63
2024/01/06 12:18:05;;;;;;;8.32;4.68;;;1.50;99.90;;;;;;5071600;28;20044;-63
2024/01/06 12:20:32;;;;;;;8.10;5.30;;;1.50;99.90;;;;;;5076808;28;20941;-64
2024/01/06 12:22:58;;;;;;;5.25;4.57;;;1.50;99.90;;;;;;5079216;28;20036;-63
2024/01/06 12:25:26;;;;;;;7.97;5.03;;;1.50;99.90;;;;;;5079099;28;20393;-64
2024/01/06 12:27:53;;;;;;;6.97;4.82;;;1.50;99.90;;;;;;5064477;28;20028;-63
2024/01/06 12:30:21;;;;;;;8.40;5.38;;;1.50;99.90;;;;;;5078042;28;20098;-63
2024/01/06 12:32:51;;;;;;;5.50;5.00;;;1.50;99.90;;;;;;5081436;28;20079;-63
2024/01/06 12:35:21;;;;;;;5.70;5.03;;;1.50;99.90;;;;;;5044340;28;20047;-63
2024/01/06 12:37:47;;;;;;;6.45;4.45;;;1.40;99.90;;;;;;5083687;28;20300;-63
2024/01/06 12:40:16;;;;;;;7.65;5.20;;;1.40;99.90;;;;;;5083580;28;20421;-63
2024/01/06 12:42:42;;;;;;;7.38;5.38;;;1.40;99.90;;;;;;5085242;28;20464;-64
2024/01/06 12:45:09;;;;;;;7.35;5.18;;;1.30;99.90;;;;;;5066688;28;20032;-63
2024/01/06 12:47:35;;;;;;;6.13;4.47;;;1.30;99.90;;;;;;5084648;28;20091;-63
2024/01/06 12:50:01;;;;;;;7.63;5.13;;;1.30;99.90;;;;;;5085383;28;20458;-63
2024/01/06 12:52:26;;;;;;;6.63;4.90;;;1.30;99.90;;;;;;5083667;28;20044;-63
2024/01/06 12:54:52;;;;;;;9.77;5.90;;;1.20;99.90;;;;;;5085020;28;20040;-63